Fort Nelson Airport
CYYE : now visible

Airfield :











YOU CAN JOIN US ON...

 
LOGIN :

Register | Disclaimer

   EN    FR    IT 

 









Legend :    VFR   Marginal VFR   IFR   Intensive IFR   Very Intensive IFR
Visi :
Ceiling :
>= 8 km
>= 3000ft
5 to 8 km
1000 to 3000 ft
1500m to 5 km
500 to 1000 ft
800 to 1500m
200 to 500 ft
< 800m
< 200 ft
Symbols :   Thunderstorms  Fog  Heavy snow  Heavy precipitations  Wind > 20 kt






- Airport Elevation : 1253 ft
- IATA code : YYE


CYYE - Fort Nelson

CURRENT METAR :
  • 091000Z 12003KT 7SM OVC012 M12/M14 A3012 RMK SC8 SLP235

EXPIRED METARs :
  • 090900Z 09004KT 8SM OVC013 M11/M14 A3010 RMK SC8 SLP228
  • 090800Z 10003KT 8SM OVC013 M11/M13 A3009 RMK SC8 SLP226

TAF TAF CYYE
Valid from the 09 at 07:00 until the 09 at 19:00 UTC


090642Z 0907/0919 34006KT P6SM SCT012 OVC060
TEMPO 0907/0912 3SM -SN OVC012
FM091200 34006KT P6SM SCT012
TEMPO 0912/0919 BKN012 RMK NXT FCST BY 091300Z



MET'MAP, your aeronautical weather chart ! - Copyright ORBIFLY December 2007 - Disclaimer

ORBIFLY MET'MAP TEAM :

Programming & Development : Alexandra Zaïnal
Concept & original design : Baudouin d'Aumeries
Assistance for programming : Marc-Olivier Méhu
Technical & hardware support : Manuel Goepfert

Contact : metmap@orbifly.com




SOURCES & CREDITS :

   NOAA       Earth
Advisory